sensor_id;sensor_type;location;lat;lon;timestamp;temperature;humidity
74946;HTU21D;63509;45.250;38.102;2023-03-01T00:01:15;6.71;64.88
74946;HTU21D;63509;45.250;38.102;2023-03-01T00:03:41;6.68;64.89
74946;HTU21D;63509;45.250;38.102;2023-03-01T00:06:08;6.67;64.89
74946;HTU21D;63509;45.250;38.102;2023-03-01T00:08:34;6.64;64.97
74946;HTU21D;63509;45.250;38.102;2023-03-01T00:13:44;6.60;64.90
74946;HTU21D;63509;45.250;38.102;2023-03-01T00:16:14;6.56;64.85
74946;HTU21D;63509;45.250;38.102;2023-03-01T00:18:40;6.54;64.84
74946;HTU21D;63509;45.250;38.102;2023-03-01T00:21:06;6.51;64.83
74946;HTU21D;63509;45.250;38.102;2023-03-01T00:23:34;6.46;64.81
74946;HTU21D;63509;45.250;38.102;2023-03-01T00:26:00;6.41;64.83
74946;HTU21D;63509;45.250;38.102;2023-03-01T00:28:27;6.37;64.85
74946;HTU21D;63509;45.250;38.102;2023-03-01T00:30:53;6.33;64.87
74946;HTU21D;63509;45.250;38.102;2023-03-01T00:33:19;6.28;64.82
74946;HTU21D;63509;45.250;38.102;2023-03-01T00:35:45;6.24;64.83
74946;HTU21D;63509;45.250;38.102;2023-03-01T00:38:11;6.19;64.89
74946;HTU21D;63509;45.250;38.102;2023-03-01T00:40:37;6.14;64.92
74946;HTU21D;63509;45.250;38.102;2023-03-01T00:43:03;6.10;64.92
74946;HTU21D;63509;45.250;38.102;2023-03-01T00:45:29;6.05;64.95
74946;HTU21D;63509;45.250;38.102;2023-03-01T00:47:57;5.99;64.98
74946;HTU21D;63509;45.250;38.102;2023-03-01T00:50:25;5.96;65.01
74946;HTU21D;63509;45.250;38.102;2023-03-01T00:52:55;5.93;65.01
74946;HTU21D;63509;45.250;38.102;2023-03-01T00:55:22;5.89;64.99
74946;HTU21D;63509;45.250;38.102;2023-03-01T00:57:48;5.82;65.04
74946;HTU21D;63509;45.250;38.102;2023-03-01T01:00:14;5.80;65.09
74946;HTU21D;63509;45.250;38.102;2023-03-01T01:02:41;5.76;65.09
74946;HTU21D;63509;45.250;38.102;2023-03-01T01:05:07;5.72;65.07
74946;HTU21D;63509;45.250;38.102;2023-03-01T01:07:33;5.69;65.05
74946;HTU21D;63509;45.250;38.102;2023-03-01T01:09:59;5.64;65.06
74946;HTU21D;63509;45.250;38.102;2023-03-01T01:12:25;5.61;65.11
74946;HTU21D;63509;45.250;38.102;2023-03-01T01:14:51;5.56;65.14
74946;HTU21D;63509;45.250;38.102;2023-03-01T01:17:17;5.54;65.17
74946;HTU21D;63509;45.250;38.102;2023-03-01T01:19:43;5.50;65.18
74946;HTU21D;63509;45.250;38.102;2023-03-01T01:22:09;5.45;65.19
74946;HTU21D;63509;45.250;38.102;2023-03-01T01:24:35;5.40;65.27
74946;HTU21D;63509;45.250;38.102;2023-03-01T01:27:01;5.33;65.30
74946;HTU21D;63509;45.250;38.102;2023-03-01T01:29:27;5.27;65.30
74946;HTU21D;63509;45.250;38.102;2023-03-01T01:31:53;5.20;65.30
74946;HTU21D;63509;45.250;38.102;2023-03-01T01:34:21;5.13;65.35
74946;HTU21D;63509;45.250;38.102;2023-03-01T01:36:49;5.07;65.40
74946;HTU21D;63509;45.250;38.102;2023-03-01T01:39:15;5.04;65.43
74946;HTU21D;63509;45.250;38.102;2023-03-01T01:41:42;5.00;65.51
74946;HTU21D;63509;45.250;38.102;2023-03-01T01:44:23;4.94;65.48
74946;HTU21D;63509;45.250;38.102;2023-03-01T01:46:54;4.91;65.55
74946;HTU21D;63509;45.250;38.102;2023-03-01T01:49:37;4.88;65.56
74946;HTU21D;63509;45.250;38.102;2023-03-01T01:54:55;4.77;65.62
74946;HTU21D;63509;45.250;38.102;2023-03-01T01:57:53;4.73;65.68
74946;HTU21D;63509;45.250;38.102;2023-03-01T02:00:21;4.71;65.66
74946;HTU21D;63509;45.250;38.102;2023-03-01T02:02:51;4.69;65.69
74946;HTU21D;63509;45.250;38.102;2023-03-01T02:08:01;4.65;65.69
74946;HTU21D;63509;45.250;38.102;2023-03-01T02:10:28;4.63;65.76
74946;HTU21D;63509;45.250;38.102;2023-03-01T02:12:55;4.65;65.83
74946;HTU21D;63509;45.250;38.102;2023-03-01T02:15:23;4.64;65.82
74946;HTU21D;63509;45.250;38.102;2023-03-01T02:17:49;4.64;65.82
74946;HTU21D;63509;45.250;38.102;2023-03-01T02:22:50;4.63;65.87
74946;HTU21D;63509;45.250;38.102;2023-03-01T02:30:27;4.62;65.89
74946;HTU21D;63509;45.250;38.102;2023-03-01T02:32:56;4.60;65.90
74946;HTU21D;63509;45.250;38.102;2023-03-01T02:35:32;4.59;65.94
74946;HTU21D;63509;45.250;38.102;2023-03-01T02:37:58;4.59;65.98
74946;HTU21D;63509;45.250;38.102;2023-03-01T02:40:28;4.58;66.06
74946;HTU21D;63509;45.250;38.102;2023-03-01T02:42:56;4.58;66.14
74946;HTU21D;63509;45.250;38.102;2023-03-01T02:45:23;4.59;66.15
74946;HTU21D;63509;45.250;38.102;2023-03-01T02:47:49;4.61;66.22
74946;HTU21D;63509;45.250;38.102;2023-03-01T02:50:51;4.64;66.21
74946;HTU21D;63509;45.250;38.102;2023-03-01T02:53:16;4.64;66.19
74946;HTU21D;63509;45.250;38.102;2023-03-01T02:55:45;4.65;66.24
74946;HTU21D;63509;45.250;38.102;2023-03-01T02:58:12;4.67;66.24
74946;HTU21D;63509;45.250;38.102;2023-03-01T03:00:41;4.67;66.29
74946;HTU21D;63509;45.250;38.102;2023-03-01T03:03:17;4.68;66.27
74946;HTU21D;63509;45.250;38.102;2023-03-01T03:05:43;4.67;66.29
74946;HTU21D;63509;45.250;38.102;2023-03-01T03:08:09;4.67;66.30
74946;HTU21D;63509;45.250;38.102;2023-03-01T03:10:39;4.67;66.36
74946;HTU21D;63509;45.250;38.102;2023-03-01T03:13:08;4.67;66.43
74946;HTU21D;63509;45.250;38.102;2023-03-01T03:15:36;4.68;66.43
74946;HTU21D;63509;45.250;38.102;2023-03-01T03:18:06;4.69;66.46
74946;HTU21D;63509;45.250;38.102;2023-03-01T03:20:32;4.69;66.47
74946;HTU21D;63509;45.250;38.102;2023-03-01T03:22:59;4.69;66.48
74946;HTU21D;63509;45.250;38.102;2023-03-01T03:25:27;4.68;66.49
74946;HTU21D;63509;45.250;38.102;2023-03-01T03:27:54;4.67;66.49
74946;HTU21D;63509;45.250;38.102;2023-03-01T03:30:31;4.67;66.50
74946;HTU21D;63509;45.250;38.102;2023-03-01T03:32:58;4.64;66.52
74946;HTU21D;63509;45.250;38.102;2023-03-01T03:35:29;4.63;66.59
74946;HTU21D;63509;45.250;38.102;2023-03-01T03:37:57;4.63;66.59
74946;HTU21D;63509;45.250;38.102;2023-03-01T03:40:38;4.61;66.59
74946;HTU21D;63509;45.250;38.102;2023-03-01T03:43:07;4.59;66.60
74946;HTU21D;63509;45.250;38.102;2023-03-01T03:45:35;4.59;66.59
74946;HTU21D;63509;45.250;38.102;2023-03-01T03:48:03;4.57;66.61
74946;HTU21D;63509;45.250;38.102;2023-03-01T03:50:30;4.54;66.62
74946;HTU21D;63509;45.250;38.102;2023-03-01T03:52:56;4.53;66.66
74946;HTU21D;63509;45.250;38.102;2023-03-01T03:55:22;4.50;66.69
74946;HTU21D;63509;45.250;38.102;2023-03-01T03:57:49;4.49;66.70
74946;HTU21D;63509;45.250;38.102;2023-03-01T04:00:21;4.47;66.76
74946;HTU21D;63509;45.250;38.102;2023-03-01T04:02:50;4.44;66.77
74946;HTU21D;63509;45.250;38.102;2023-03-01T04:05:18;4.42;66.78
74946;HTU21D;63509;45.250;38.102;2023-03-01T04:07:45;4.39;66.80
74946;HTU21D;63509;45.250;38.102;2023-03-01T04:10:17;4.37;66.80
74946;HTU21D;63509;45.250;38.102;2023-03-01T04:12:43;4.35;66.78
74946;HTU21D;63509;45.250;38.102;2023-03-01T04:15:11;4.32;66.81
74946;HTU21D;63509;45.250;38.102;2023-03-01T04:17:45;4.31;66.84
74946;HTU21D;63509;45.250;38.102;2023-03-01T04:20:15;4.30;66.85
74946;HTU21D;63509;45.250;38.102;2023-03-01T04:23:16;4.31;67.13
74946;HTU21D;63509;45.250;38.102;2023-03-01T04:25:53;4.48;67.23
74946;HTU21D;63509;45.250;38.102;2023-03-01T04:28:27;4.52;67.08
74946;HTU21D;63509;45.250;38.102;2023-03-01T04:30:55;4.53;67.03
74946;HTU21D;63509;45.250;38.102;2023-03-01T04:33:22;4.54;67.04
74946;HTU21D;63509;45.250;38.102;2023-03-01T04:35:48;4.54;67.03
74946;HTU21D;63509;45.250;38.102;2023-03-01T04:38:18;4.52;67.08
74946;HTU21D;63509;45.250;38.102;2023-03-01T04:40:45;4.54;67.17
74946;HTU21D;63509;45.250;38.102;2023-03-01T04:43:11;4.54;67.19
74946;HTU21D;63509;45.250;38.102;2023-03-01T04:45:40;4.57;67.21
74946;HTU21D;63509;45.250;38.102;2023-03-01T04:48:06;4.57;67.21
74946;HTU21D;63509;45.250;38.102;2023-03-01T04:50:32;4.58;67.27
74946;HTU21D;63509;45.250;38.102;2023-03-01T04:52:58;4.60;67.27
74946;HTU21D;63509;45.250;38.102;2023-03-01T04:55:26;4.61;67.33
74946;HTU21D;63509;45.250;38.102;2023-03-01T04:57:53;4.63;67.30
74946;HTU21D;63509;45.250;38.102;2023-03-01T05:00:20;4.65;67.30
74946;HTU21D;63509;45.250;38.102;2023-03-01T05:02:51;4.67;67.34
74946;HTU21D;63509;45.250;38.102;2023-03-01T05:05:20;4.68;67.35
74946;HTU21D;63509;45.250;38.102;2023-03-01T05:07:47;4.69;67.36
74946;HTU21D;63509;45.250;38.102;2023-03-01T05:10:13;4.73;67.37
74946;HTU21D;63509;45.250;38.102;2023-03-01T05:12:39;4.75;67.36
74946;HTU21D;63509;45.250;38.102;2023-03-01T05:15:05;4.77;67.39
74946;HTU21D;63509;45.250;38.102;2023-03-01T05:17:33;4.77;67.40
74946;HTU21D;63509;45.250;38.102;2023-03-01T05:20:00;4.76;67.39
74946;HTU21D;63509;45.250;38.102;2023-03-01T05:22:26;4.75;67.42
74946;HTU21D;63509;45.250;38.102;2023-03-01T05:24:52;4.76;67.42
74946;HTU21D;63509;45.250;38.102;2023-03-01T05:27:19;4.76;67.45
74946;HTU21D;63509;45.250;38.102;2023-03-01T05:29:48;4.76;67.46
74946;HTU21D;63509;45.250;38.102;2023-03-01T05:32:14;4.77;67.50
74946;HTU21D;63509;45.250;38.102;2023-03-01T05:34:41;4.78;67.52
74946;HTU21D;63509;45.250;38.102;2023-03-01T05:37:08;4.79;67.56
74946;HTU21D;63509;45.250;38.102;2023-03-01T05:39:34;4.80;67.58
74946;HTU21D;63509;45.250;38.102;2023-03-01T05:42:01;4.80;67.60
74946;HTU21D;63509;45.250;38.102;2023-03-01T05:44:28;4.83;67.65
74946;HTU21D;63509;45.250;38.102;2023-03-01T05:46:55;4.83;67.66
74946;HTU21D;63509;45.250;38.102;2023-03-01T05:49:21;4.86;67.66
74946;HTU21D;63509;45.250;38.102;2023-03-01T05:51:51;4.88;67.69
74946;HTU21D;63509;45.250;38.102;2023-03-01T05:54:19;4.90;67.70
74946;HTU21D;63509;45.250;38.102;2023-03-01T05:56:45;4.93;67.69
74946;HTU21D;63509;45.250;38.102;2023-03-01T05:59:12;4.93;67.70
74946;HTU21D;63509;45.250;38.102;2023-03-01T06:01:39;4.95;67.71
74946;HTU21D;63509;45.250;38.102;2023-03-01T06:04:05;4.97;67.72
74946;HTU21D;63509;45.250;38.102;2023-03-01T06:06:36;5.01;67.70
74946;HTU21D;63509;45.250;38.102;2023-03-01T06:09:06;5.03;67.68
74946;HTU21D;63509;45.250;38.102;2023-03-01T06:11:35;5.04;67.65
74946;HTU21D;63509;45.250;38.102;2023-03-01T06:14:02;5.05;67.61
74946;HTU21D;63509;45.250;38.102;2023-03-01T06:16:28;5.07;67.59
74946;HTU21D;63509;45.250;38.102;2023-03-01T06:18:54;5.07;67.58
74946;HTU21D;63509;45.250;38.102;2023-03-01T06:21:21;5.09;67.55
74946;HTU21D;63509;45.250;38.102;2023-03-01T06:23:47;5.09;67.51
74946;HTU21D;63509;45.250;38.102;2023-03-01T06:26:13;5.08;67.50
74946;HTU21D;63509;45.250;38.102;2023-03-01T06:28:39;5.09;67.52
74946;HTU21D;63509;45.250;38.102;2023-03-01T06:31:05;5.10;67.47
74946;HTU21D;63509;45.250;38.102;2023-03-01T06:33:34;5.12;67.45
74946;HTU21D;63509;45.250;38.102;2023-03-01T06:36:01;5.12;67.42
74946;HTU21D;63509;45.250;38.102;2023-03-01T06:38:27;5.15;67.40
74946;HTU21D;63509;45.250;38.102;2023-03-01T06:40:54;5.16;67.43
74946;HTU21D;63509;45.250;38.102;2023-03-01T06:43:23;5.20;67.42
74946;HTU21D;63509;45.250;38.102;2023-03-01T06:45:49;5.22;67.37
74946;HTU21D;63509;45.250;38.102;2023-03-01T06:48:15;5.22;67.33
74946;HTU21D;63509;45.250;38.102;2023-03-01T06:50:41;5.24;67.33
74946;HTU21D;63509;45.250;38.102;2023-03-01T06:53:07;5.27;67.29
74946;HTU21D;63509;45.250;38.102;2023-03-01T06:55:33;5.31;67.27
74946;HTU21D;63509;45.250;38.102;2023-03-01T06:58:00;5.34;67.20
74946;HTU21D;63509;45.250;38.102;2023-03-01T07:00:28;5.37;67.19
74946;HTU21D;63509;45.250;38.102;2023-03-01T07:02:54;5.41;67.13
74946;HTU21D;63509;45.250;38.102;2023-03-01T07:05:20;5.45;67.09
74946;HTU21D;63509;45.250;38.102;2023-03-01T07:07:46;5.47;67.04
74946;HTU21D;63509;45.250;38.102;2023-03-01T07:10:12;5.48;67.01
74946;HTU21D;63509;45.250;38.102;2023-03-01T07:12:38;5.49;66.98
74946;HTU21D;63509;45.250;38.102;2023-03-01T07:15:05;5.51;66.97
74946;HTU21D;63509;45.250;38.102;2023-03-01T07:17:31;5.53;66.89
74946;HTU21D;63509;45.250;38.102;2023-03-01T07:19:57;5.56;66.88
74946;HTU21D;63509;45.250;38.102;2023-03-01T07:22:23;5.59;66.83
74946;HTU21D;63509;45.250;38.102;2023-03-01T07:24:49;5.64;66.76
74946;HTU21D;63509;45.250;38.102;2023-03-01T07:27:15;5.66;66.72
74946;HTU21D;63509;45.250;38.102;2023-03-01T07:29:41;5.69;66.67
74946;HTU21D;63509;45.250;38.102;2023-03-01T07:32:07;5.71;66.65
74946;HTU21D;63509;45.250;38.102;2023-03-01T07:34:34;5.77;66.62
74946;HTU21D;63509;45.250;38.102;2023-03-01T07:37:00;5.81;66.65
74946;HTU21D;63509;45.250;38.102;2023-03-01T07:39:26;5.89;66.69
74946;HTU21D;63509;45.250;38.102;2023-03-01T07:41:52;5.96;66.65
74946;HTU21D;63509;45.250;38.102;2023-03-01T07:44:21;6.04;66.58
74946;HTU21D;63509;45.250;38.102;2023-03-01T07:46:47;6.07;66.47
74946;HTU21D;63509;45.250;38.102;2023-03-01T07:49:13;6.08;66.45
74946;HTU21D;63509;45.250;38.102;2023-03-01T07:51:39;6.12;66.38
74946;HTU21D;63509;45.250;38.102;2023-03-01T07:54:05;6.16;66.32
74946;HTU21D;63509;45.250;38.102;2023-03-01T07:56:31;6.21;66.32
74946;HTU21D;63509;45.250;38.102;2023-03-01T07:58:59;6.28;66.26
74946;HTU21D;63509;45.250;38.102;2023-03-01T08:01:25;6.35;66.24
74946;HTU21D;63509;45.250;38.102;2023-03-01T08:03:51;6.42;66.17
74946;HTU21D;63509;45.250;38.102;2023-03-01T08:06:18;6.48;66.05
74946;HTU21D;63509;45.250;38.102;2023-03-01T08:08:44;6.52;65.95
74946;HTU21D;63509;45.250;38.102;2023-03-01T08:11:12;6.55;65.95
74946;HTU21D;63509;45.250;38.102;2023-03-01T08:13:38;6.59;65.87
74946;HTU21D;63509;45.250;38.102;2023-03-01T08:16:06;6.63;65.80
74946;HTU21D;63509;45.250;38.102;2023-03-01T08:18:33;6.67;65.75
74946;HTU21D;63509;45.250;38.102;2023-03-01T08:21:04;6.69;65.58
74946;HTU21D;63509;45.250;38.102;2023-03-01T08:23:30;6.71;65.59
74946;HTU21D;63509;45.250;38.102;2023-03-01T08:26:13;6.79;65.63
74946;HTU21D;63509;45.250;38.102;2023-03-01T08:28:40;6.85;65.50
74946;HTU21D;63509;45.250;38.102;2023-03-01T08:31:21;6.89;65.40
74946;HTU21D;63509;45.250;38.102;2023-03-01T08:33:49;6.90;65.32
74946;HTU21D;63509;45.250;38.102;2023-03-01T08:36:24;6.94;65.31
74946;HTU21D;63509;45.250;38.102;2023-03-01T08:38:50;6.99;65.23
74946;HTU21D;63509;45.250;38.102;2023-03-01T08:41:16;7.02;65.15
74946;HTU21D;63509;45.250;38.102;2023-03-01T08:43:42;7.04;65.06
74946;HTU21D;63509;45.250;38.102;2023-03-01T08:46:09;7.04;64.98
74946;HTU21D;63509;45.250;38.102;2023-03-01T08:48:35;7.07;65.01
74946;HTU21D;63509;45.250;38.102;2023-03-01T08:51:27;7.16;65.12
74946;HTU21D;63509;45.250;38.102;2023-03-01T08:53:54;7.22;64.98
74946;HTU21D;63509;45.250;38.102;2023-03-01T08:56:20;7.24;64.84
74946;HTU21D;63509;45.250;38.102;2023-03-01T08:58:48;7.25;64.74
74946;HTU21D;63509;45.250;38.102;2023-03-01T09:01:16;7.27;64.69
74946;HTU21D;63509;45.250;38.102;2023-03-01T09:03:43;7.32;64.66
74946;HTU21D;63509;45.250;38.102;2023-03-01T09:06:09;7.34;64.50
74946;HTU21D;63509;45.250;38.102;2023-03-01T09:08:40;7.38;64.54
74946;HTU21D;63509;45.250;38.102;2023-03-01T09:11:08;7.43;64.61
74946;HTU21D;63509;45.250;38.102;2023-03-01T09:13:35;7.56;64.76
74946;HTU21D;63509;45.250;38.102;2023-03-01T09:16:04;7.70;64.86
74946;HTU21D;63509;45.250;38.102;2023-03-01T09:18:31;7.85;64.76
74946;HTU21D;63509;45.250;38.102;2023-03-01T09:21:17;8.00;64.63
74946;HTU21D;63509;45.250;38.102;2023-03-01T09:23:45;8.05;64.27
74946;HTU21D;63509;45.250;38.102;2023-03-01T09:26:14;8.12;64.11
74946;HTU21D;63509;45.250;38.102;2023-03-01T09:28:42;8.16;63.91
74946;HTU21D;63509;45.250;38.102;2023-03-01T09:31:10;8.16;63.75
74946;HTU21D;63509;45.250;38.102;2023-03-01T09:33:39;8.19;63.58
74946;HTU21D;63509;45.250;38.102;2023-03-01T09:36:16;8.20;63.53
74946;HTU21D;63509;45.250;38.102;2023-03-01T09:38:43;8.19;63.36
74946;HTU21D;63509;45.250;38.102;2023-03-01T09:41:40;8.17;63.41
74946;HTU21D;63509;45.250;38.102;2023-03-01T09:46:40;8.19;63.62
74946;HTU21D;63509;45.250;38.102;2023-03-01T09:49:15;8.19;63.47
74946;HTU21D;63509;45.250;38.102;2023-03-01T09:51:56;8.18;63.24
74946;HTU21D;63509;45.250;38.102;2023-03-01T09:54:23;8.15;63.18
74946;HTU21D;63509;45.250;38.102;2023-03-01T09:57:20;8.15;63.20
74946;HTU21D;63509;45.250;38.102;2023-03-01T10:06:26;8.21;63.24
74946;HTU21D;63509;45.250;38.102;2023-03-01T10:08:43;8.20;62.98
74946;HTU21D;63509;45.250;38.102;2023-03-01T10:11:24;8.16;63.00
74946;HTU21D;63509;45.250;38.102;2023-03-01T10:16:43;8.27;63.03
74946;HTU21D;63509;45.250;38.102;2023-03-01T10:19:27;8.33;63.05
74946;HTU21D;63509;45.250;38.102;2023-03-01T10:21:54;8.45;62.74
74946;HTU21D;63509;45.250;38.102;2023-03-01T10:24:22;8.51;62.70
74946;HTU21D;63509;45.250;38.102;2023-03-01T10:26:56;8.65;62.62
74946;HTU21D;63509;45.250;38.102;2023-03-01T10:29:42;8.76;62.54
74946;HTU21D;63509;45.250;38.102;2023-03-01T10:32:11;8.83;62.18
74946;HTU21D;63509;45.250;38.102;2023-03-01T10:34:37;8.86;62.02
74946;HTU21D;63509;45.250;38.102;2023-03-01T10:37:13;8.91;61.94
74946;HTU21D;63509;45.250;38.102;2023-03-01T10:39:57;8.96;61.93
74946;HTU21D;63509;45.250;38.102;2023-03-01T10:50:42;9.31;61.41
74946;HTU21D;63509;45.250;38.102;2023-03-01T10:53:40;9.41;61.52
74946;HTU21D;63509;45.250;38.102;2023-03-01T10:56:11;9.50;61.27
74946;HTU21D;63509;45.250;38.102;2023-03-01T11:01:36;9.66;60.76
74946;HTU21D;63509;45.250;38.102;2023-03-01T11:04:13;9.71;60.71
74946;HTU21D;63509;45.250;38.102;2023-03-01T11:06:40;9.77;60.44
74946;HTU21D;63509;45.250;38.102;2023-03-01T11:09:20;9.81;60.52
74946;HTU21D;63509;45.250;38.102;2023-03-01T11:11:55;9.79;60.25
74946;HTU21D;63509;45.250;38.102;2023-03-01T11:14:24;9.79;60.02
74946;HTU21D;63509;45.250;38.102;2023-03-01T11:17:05;9.81;60.12
74946;HTU21D;63509;45.250;38.102;2023-03-01T11:19:37;9.80;59.86
74946;HTU21D;63509;45.250;38.102;2023-03-01T11:22:17;9.81;59.97
74946;HTU21D;63509;45.250;38.102;2023-03-01T11:24:46;9.79;60.23
74946;HTU21D;63509;45.250;38.102;2023-03-01T11:27:33;9.75;60.12
74946;HTU21D;63509;45.250;38.102;2023-03-01T11:30:07;9.72;59.90
74946;HTU21D;63509;45.250;38.102;2023-03-01T11:33:03;9.69;59.90
74946;HTU21D;63509;45.250;38.102;2023-03-01T11:35:32;9.67;59.56
74946;HTU21D;63509;45.250;38.102;2023-03-01T11:40:41;9.62;59.27
74946;HTU21D;63509;45.250;38.102;2023-03-01T11:43:26;9.53;59.32
74946;HTU21D;63509;45.250;38.102;2023-03-01T11:56:57;8.87;58.70
74946;HTU21D;63509;45.250;38.102;2023-03-01T11:59:42;8.76;58.75
74946;HTU21D;63509;45.250;38.102;2023-03-01T12:05:46;8.57;59.12
74946;HTU21D;63509;45.250;38.102;2023-03-01T12:08:16;8.52;58.98
74946;HTU21D;63509;45.250;38.102;2023-03-01T12:11:09;8.50;59.09
74946;HTU21D;63509;45.250;38.102;2023-03-01T12:13:56;8.46;59.08
74946;HTU21D;63509;45.250;38.102;2023-03-01T12:28:14;8.32;58.83
74946;HTU21D;63509;45.250;38.102;2023-03-01T12:33:54;8.33;58.73
74946;HTU21D;63509;45.250;38.102;2023-03-01T12:36:48;8.36;58.72
74946;HTU21D;63509;45.250;38.102;2023-03-01T12:41:47;8.44;58.48
74946;HTU21D;63509;45.250;38.102;2023-03-01T12:44:19;8.46;58.34
74946;HTU21D;63509;45.250;38.102;2023-03-01T12:49:35;8.55;58.35
74946;HTU21D;63509;45.250;38.102;2023-03-01T12:52:15;8.55;58.07
74946;HTU21D;63509;45.250;38.102;2023-03-01T12:54:45;8.55;57.96
74946;HTU21D;63509;45.250;38.102;2023-03-01T12:57:21;8.50;57.91
74946;HTU21D;63509;45.250;38.102;2023-03-01T13:00:02;8.43;57.83
74946;HTU21D;63509;45.250;38.102;2023-03-01T13:02:45;8.37;57.94
74946;HTU21D;63509;45.250;38.102;2023-03-01T13:06:24;8.31;57.93
74946;HTU21D;63509;45.250;38.102;2023-03-01T13:09:34;8.20;57.94
74946;HTU21D;63509;45.250;38.102;2023-03-01T13:11:42;8.14;57.90
74946;HTU21D;63509;45.250;38.102;2023-03-01T13:16:47;8.04;57.77
74946;HTU21D;63509;45.250;38.102;2023-03-01T13:19:21;7.98;57.82
74946;HTU21D;63509;45.250;38.102;2023-03-01T13:21:48;7.94;57.80
74946;HTU21D;63509;45.250;38.102;2023-03-01T13:24:35;7.90;57.90
74946;HTU21D;63509;45.250;38.102;2023-03-01T13:29:49;7.76;57.74
74946;HTU21D;63509;45.250;38.102;2023-03-01T13:32:37;7.69;57.81
74946;HTU21D;63509;45.250;38.102;2023-03-01T13:37:45;7.57;57.82
74946;HTU21D;63509;45.250;38.102;2023-03-01T13:42:55;7.44;57.72
74946;HTU21D;63509;45.250;38.102;2023-03-01T13:48:26;7.29;57.91
74946;HTU21D;63509;45.250;38.102;2023-03-01T13:51:00;7.20;57.87
74946;HTU21D;63509;45.250;38.102;2023-03-01T13:53:45;7.13;57.84
74946;HTU21D;63509;45.250;38.102;2023-03-01T13:56:40;7.07;57.99
74946;HTU21D;63509;45.250;38.102;2023-03-01T13:59:17;6.98;58.02
74946;HTU21D;63509;45.250;38.102;2023-03-01T14:01:43;6.91;58.05
74946;HTU21D;63509;45.250;38.102;2023-03-01T14:04:38;6.85;58.13
74946;HTU21D;63509;45.250;38.102;2023-03-01T14:07:21;6.80;58.16
74946;HTU21D;63509;45.250;38.102;2023-03-01T14:10:00;6.71;58.20
74946;HTU21D;63509;45.250;38.102;2023-03-01T14:15:38;6.61;58.29
74946;HTU21D;63509;45.250;38.102;2023-03-01T14:20:44;6.49;58.41
74946;HTU21D;63509;45.250;38.102;2023-03-01T14:23:23;6.44;58.52
74946;HTU21D;63509;45.250;38.102;2023-03-01T14:25:54;6.42;58.47
74946;HTU21D;63509;45.250;38.102;2023-03-01T14:28:24;6.37;58.51
74946;HTU21D;63509;45.250;38.102;2023-03-01T14:30:54;6.35;58.61
74946;HTU21D;63509;45.250;38.102;2023-03-01T14:33:30;6.33;58.68
74946;HTU21D;63509;45.250;38.102;2023-03-01T14:36:01;6.31;58.71
74946;HTU21D;63509;45.250;38.102;2023-03-01T14:38:48;6.28;58.74
74946;HTU21D;63509;45.250;38.102;2023-03-01T14:41:19;6.24;58.70
74946;HTU21D;63509;45.250;38.102;2023-03-01T14:43:49;6.19;58.75
74946;HTU21D;63509;45.250;38.102;2023-03-01T14:46:28;6.20;58.83
74946;HTU21D;63509;45.250;38.102;2023-03-01T14:49:10;6.19;58.81
74946;HTU21D;63509;45.250;38.102;2023-03-01T14:51:40;6.17;58.80
74946;HTU21D;63509;45.250;38.102;2023-03-01T14:54:25;6.14;58.83
74946;HTU21D;63509;45.250;38.102;2023-03-01T14:56:54;6.12;58.85
74946;HTU21D;63509;45.250;38.102;2023-03-01T14:59:23;6.09;58.87
74946;HTU21D;63509;45.250;38.102;2023-03-01T15:01:51;6.07;58.91
74946;HTU21D;63509;45.250;38.102;2023-03-01T15:04:18;6.02;58.91
74946;HTU21D;63509;45.250;38.102;2023-03-01T15:06:46;5.97;58.96
74946;HTU21D;63509;45.250;38.102;2023-03-01T15:09:16;5.93;59.06
74946;HTU21D;63509;45.250;38.102;2023-03-01T15:11:43;5.90;59.09
74946;HTU21D;63509;45.250;38.102;2023-03-01T15:14:38;5.85;59.15
74946;HTU21D;63509;45.250;38.102;2023-03-01T15:17:34;5.81;59.19
74946;HTU21D;63509;45.250;38.102;2023-03-01T15:20:03;5.77;59.22
74946;HTU21D;63509;45.250;38.102;2023-03-01T15:22:31;5.75;59.25
74946;HTU21D;63509;45.250;38.102;2023-03-01T15:24:57;5.70;59.26
74946;HTU21D;63509;45.250;38.102;2023-03-01T15:27:25;5.66;59.33
74946;HTU21D;63509;45.250;38.102;2023-03-01T15:30:00;5.63;59.38
74946;HTU21D;63509;45.250;38.102;2023-03-01T15:32:33;5.59;59.42
74946;HTU21D;63509;45.250;38.102;2023-03-01T15:35:09;5.55;59.47
74946;HTU21D;63509;45.250;38.102;2023-03-01T15:37:48;5.50;59.55
74946;HTU21D;63509;45.250;38.102;2023-03-01T15:42:50;5.41;59.58
74946;HTU21D;63509;45.250;38.102;2023-03-01T15:47:50;5.34;59.76
74946;HTU21D;63509;45.250;38.102;2023-03-01T15:50:26;5.31;59.78
74946;HTU21D;63509;45.250;38.102;2023-03-01T15:52:53;5.27;59.84
74946;HTU21D;63509;45.250;38.102;2023-03-01T15:55:30;5.25;59.90
74946;HTU21D;63509;45.250;38.102;2023-03-01T15:58:01;5.21;59.94
74946;HTU21D;63509;45.250;38.102;2023-03-01T16:00:28;5.20;59.97
74946;HTU21D;63509;45.250;38.102;2023-03-01T16:02:55;5.16;60.03
74946;HTU21D;63509;45.250;38.102;2023-03-01T16:05:30;5.16;60.06
74946;HTU21D;63509;45.250;38.102;2023-03-01T16:07:57;5.11;60.09
74946;HTU21D;63509;45.250;38.102;2023-03-01T16:10:28;5.09;60.12
74946;HTU21D;63509;45.250;38.102;2023-03-01T16:12:54;5.06;60.15
74946;HTU21D;63509;45.250;38.102;2023-03-01T16:15:31;5.03;60.20
74946;HTU21D;63509;45.250;38.102;2023-03-01T16:17:59;5.00;60.26
74946;HTU21D;63509;45.250;38.102;2023-03-01T16:20:25;4.96;60.29
74946;HTU21D;63509;45.250;38.102;2023-03-01T16:22:51;4.94;60.31
74946;HTU21D;63509;45.250;38.102;2023-03-01T16:25:18;4.90;60.31
74946;HTU21D;63509;45.250;38.102;2023-03-01T16:27:47;4.86;60.29
74946;HTU21D;63509;45.250;38.102;2023-03-01T16:30:15;4.80;60.29
74946;HTU21D;63509;45.250;38.102;2023-03-01T16:32:43;4.75;60.38
74946;HTU21D;63509;45.250;38.102;2023-03-01T16:35:11;4.69;60.45
74946;HTU21D;63509;45.250;38.102;2023-03-01T16:37:38;4.64;60.51
74946;HTU21D;63509;45.250;38.102;2023-03-01T16:40:06;4.58;60.57
74946;HTU21D;63509;45.250;38.102;2023-03-01T16:42:37;4.56;60.54
74946;HTU21D;63509;45.250;38.102;2023-03-01T16:45:07;4.50;60.55
74946;HTU21D;63509;45.250;38.102;2023-03-01T16:47:33;4.47;60.55
74946;HTU21D;63509;45.250;38.102;2023-03-01T16:49:59;4.42;60.58
74946;HTU21D;63509;45.250;38.102;2023-03-01T16:52:26;4.35;60.58
74946;HTU21D;63509;45.250;38.102;2023-03-01T16:54:52;4.29;60.60
74946;HTU21D;63509;45.250;38.102;2023-03-01T16:57:18;4.24;60.61
74946;HTU21D;63509;45.250;38.102;2023-03-01T16:59:44;4.21;60.67
74946;HTU21D;63509;45.250;38.102;2023-03-01T17:02:12;4.17;60.69
74946;HTU21D;63509;45.250;38.102;2023-03-01T17:04:39;4.12;60.72
74946;HTU21D;63509;45.250;38.102;2023-03-01T17:07:05;4.08;60.76
74946;HTU21D;63509;45.250;38.102;2023-03-01T17:09:35;4.02;60.80
74946;HTU21D;63509;45.250;38.102;2023-03-01T17:12:04;3.91;60.84
74946;HTU21D;63509;45.250;38.102;2023-03-01T17:14:30;3.83;60.89
74946;HTU21D;63509;45.250;38.102;2023-03-01T17:16:56;3.77;60.96